Tamara — HOEH — position and weather

sailwx.info

Track history (hours):
 
Tides and Currents Weather Stations Pressure Air Temp Water Temp Dewpoint Dewpoint Depression Visibility Wind Speed Wind Dir Waves Ship Positions

Tamara

Last reported at 2017-Apr-21 23:23 UTC. Time now 2017-Apr-29 15:28 UTC.
Position N 32°40' E 030°30'.

Length 117 m; draft 5.6 m.

Type: Ship (hazmat cat A). MMSI: 353900000.

Date/timePositionNaut miles runAvg speedWind from/ knotsBaromVisibWave heightAir tempDewpointWater temp
2017-Apr-21 23:23N 32°40' E 030°30'513.6
2017-Apr-21 23:00N 32°44' E 030°34'7813.8
2017-Apr-21 17:20N 33°34' E 031°45'813.8
2017-Apr-21 16:47N 33°39' E 031°52'513.8
2017-Apr-21 16:24N 33°43' E 031°57'613.7
2017-Apr-21 15:57N 33°47' E 032°02'613.4
2017-Apr-21 15:28N 33°51' E 032°08'613.1
2017-Apr-21 15:00N 33°55' E 032°14'1813.1
2017-Apr-21 13:37N 34°07' E 032°30'313.2
2017-Apr-21 13:24N 34°09' E 032°33'613.2
2017-Apr-21 12:57N 34°13' E 032°39'613.0
2017-Apr-21 12:30N 34°16' E 032°44'613.0
2017-Apr-21 12:00N 34°21' E 032°50'713.0
2017-Apr-21 11:30N 34°25' E 032°55'713.2
2017-Apr-21 11:00N 34°29' E 033°02'612.4
2017-Apr-21 10:30N 34°35' E 033°06'510.8
2017-Apr-21 10:00N 34°40' E 033°05'0 0.1
2017-Apr-21 08:52N 34°40' E 033°05'0 0.0
2017-Apr-21 06:49N 34°40' E 033°05'0 0.0
2017-Apr-21 05:13N 34°40' E 033°05'0 0.1
2017-Apr-21 04:56N 34°40' E 033°05'0 0.0
2017-Apr-21 04:28N 34°40' E 033°05'0 0.0
2017-Apr-21 03:56N 34°40' E 033°05'0 0.0
2017-Apr-21 03:25N 34°40' E 033°05'0 0.1
2017-Apr-21 02:52N 34°40' E 033°05'0 0.0
2017-Apr-21 02:25N 34°40' E 033°05'0 0.0
2017-Apr-21 01:29N 34°40' E 033°05'0 0.0
2017-Apr-21 00:59N 34°40' E 033°05'0 0.1
2017-Apr-21 00:23N 34°40' E 033°05'1 3.4
2017-Apr-21 00:00N 34°39' E 033°06'510.4
2017-Apr-20 23:30N 34°37' E 033°12'1913.6
2017-Apr-20 22:07N 34°30' E 033°33'1113.4
2017-Apr-20 21:17N 34°26' E 033°46'413.5
2017-Apr-20 20:57N 34°24' E 033°51'1813.5
2017-Apr-20 19:39N 34°17' E 034°10'213.3
2017-Apr-20 19:30N 34°16' E 034°12'913.1
2017-Apr-20 18:51N 34°13' E 034°22'513.0
2017-Apr-20 18:30N 34°11' E 034°27'713.1
2017-Apr-20 17:58N 34°08' E 034°35'613.2
2017-Apr-20 17:30N 34°06' E 034°42'1913.1
2017-Apr-20 16:01N 33°58' E 035°03'412.9
2017-Apr-20 15:43N 33°57' E 035°08'313.0
2017-Apr-20 15:29N 33°56' E 035°11'613.1
2017-Apr-20 14:59N 33°55' E 035°19'613.4
2017-Apr-20 14:30N 33°55' E 035°27'4 0.2
2017-Apr-19 10:45N 33°55' E 035°32'  
2017-Apr-17 02:42N 33°54' E 035°21'512.1
2017-Apr-17 02:18N 33°54' E 035°15'412.0
2017-Apr-17 01:58N 33°54' E 035°11'1212.0
2017-Apr-17 00:59N 33°55' E 034°56'612.0
2017-Apr-17 00:30N 33°56' E 034°50'  
Track history (hours):
 
Tides and Currents Weather Stations Pressure Air Temp Water Temp Dewpoint Dewpoint Depression Visibility Wind Speed Wind Dir Waves Ship Positions

Tamara

Last reported at 2017-Apr-21 23:23 UTC. Time now 2017-Apr-29 15:28 UTC.
Position N 32°40' E 030°30'.

Length 117 m; draft 5.6 m.

Type: Ship (hazmat cat A). MMSI: 353900000.

Date/timePositionNaut miles runAvg speedWind from/ knotsBaromVisibWave heightAir tempDewpointWater temp
2017-Apr-21 23:23N 32°40' E 030°30'513.6
2017-Apr-21 23:00N 32°44' E 030°34'7813.8
2017-Apr-21 17:20N 33°34' E 031°45'813.8
2017-Apr-21 16:47N 33°39' E 031°52'513.8
2017-Apr-21 16:24N 33°43' E 031°57'613.7
2017-Apr-21 15:57N 33°47' E 032°02'613.4
2017-Apr-21 15:28N 33°51' E 032°08'613.1
2017-Apr-21 15:00N 33°55' E 032°14'1813.1
2017-Apr-21 13:37N 34°07' E 032°30'313.2
2017-Apr-21 13:24N 34°09' E 032°33'613.2
2017-Apr-21 12:57N 34°13' E 032°39'613.0
2017-Apr-21 12:30N 34°16' E 032°44'613.0
2017-Apr-21 12:00N 34°21' E 032°50'713.0
2017-Apr-21 11:30N 34°25' E 032°55'713.2
2017-Apr-21 11:00N 34°29' E 033°02'612.4
2017-Apr-21 10:30N 34°35' E 033°06'510.8
2017-Apr-21 10:00N 34°40' E 033°05'0 0.1
2017-Apr-21 08:52N 34°40' E 033°05'0 0.0
2017-Apr-21 06:49N 34°40' E 033°05'0 0.0
2017-Apr-21 05:13N 34°40' E 033°05'0 0.1
2017-Apr-21 04:56N 34°40' E 033°05'0 0.0
2017-Apr-21 04:28N 34°40' E 033°05'0 0.0
2017-Apr-21 03:56N 34°40' E 033°05'0 0.0
2017-Apr-21 03:25N 34°40' E 033°05'0 0.1
2017-Apr-21 02:52N 34°40' E 033°05'0 0.0
2017-Apr-21 02:25N 34°40' E 033°05'0 0.0
2017-Apr-21 01:29N 34°40' E 033°05'0 0.0
2017-Apr-21 00:59N 34°40' E 033°05'0 0.1
2017-Apr-21 00:23N 34°40' E 033°05'1 3.4
2017-Apr-21 00:00N 34°39' E 033°06'510.4
2017-Apr-20 23:30N 34°37' E 033°12'1913.6
2017-Apr-20 22:07N 34°30' E 033°33'1113.4
2017-Apr-20 21:17N 34°26' E 033°46'413.5
2017-Apr-20 20:57N 34°24' E 033°51'1813.5
2017-Apr-20 19:39N 34°17' E 034°10'213.3
2017-Apr-20 19:30N 34°16' E 034°12'913.1
2017-Apr-20 18:51N 34°13' E 034°22'513.0
2017-Apr-20 18:30N 34°11' E 034°27'713.1
2017-Apr-20 17:58N 34°08' E 034°35'613.2
2017-Apr-20 17:30N 34°06' E 034°42'1913.1
2017-Apr-20 16:01N 33°58' E 035°03'412.9
2017-Apr-20 15:43N 33°57' E 035°08'313.0
2017-Apr-20 15:29N 33°56' E 035°11'613.1
2017-Apr-20 14:59N 33°55' E 035°19'613.4
2017-Apr-20 14:30N 33°55' E 035°27'4 0.2
2017-Apr-19 10:45N 33°55' E 035°32'  
2017-Apr-17 02:42N 33°54' E 035°21'512.1
2017-Apr-17 02:18N 33°54' E 035°15'412.0
2017-Apr-17 01:58N 33°54' E 035°11'1212.0
2017-Apr-17 00:59N 33°55' E 034°56'612.0
2017-Apr-17 00:30N 33°56' E 034°50'  

Dump ship's entire track history